Hidden Valley, Valles Caldera, New Mexico Weather observations

Data are for 10 minute period ending at time listed.
 Day   Time   Solar   Ave.   Ave.  Ave.  Vector  Max.   Baro.   Total    
  of    of     Rad.   Air    Rel.  Wind   Wind   Wind  Press.  Precip.   
Year   Day            Temp.  Hum.  Speed  Dir.   Gust                    
2014   (MST)  Kw/m2    F      %     mph   deg.    mph    mb.     in.     
-------------------------------------------------------------------------
 271   22:30   0.00   54.2    75    3.4   184     6.1   748.2    0.00 
 271   22:40   0.00   54.0    76    2.7   182     5.3   748.2    0.00 
 271   22:50   0.00   54.3    76    3.6   180     5.7   748.2    0.00 
 271   23:00   0.00   54.3    76    3.9   181     8.6   748.2    0.00 
 271   23:10   0.00   54.3    76    3.8   180     7.0   748.3    0.00 
 271   23:20   0.00   54.2    77    3.8   182     6.4   748.3    0.00 
 271   23:30   0.00   54.0    77    3.1   174     5.7   748.3    0.00 
 271   23:40   0.00   53.8    78    2.6   180     5.1   748.3    0.00 
 271   23:50   0.00   53.6    78    3.0   180     5.2   748.3    0.00 
 272    0:00   0.00   53.3    79    2.6   177     4.5   748.3    0.00 
 272    0:10   0.00   53.1    79    2.2   181     3.8   748.3    0.00 
 272    0:20   0.00   52.6    80    2.3   178     3.9   748.3    0.00 
 272    0:30   0.00   52.6    81    2.0   184     3.6   748.3    0.00 
 272    0:40   0.00   52.6    81    2.3   184     3.3   748.3    0.00 
 272    0:50   0.00   52.6    81    2.1   185     3.6   748.3    0.00 
 272    1:00   0.00   52.4    82    2.2   182     3.9   748.3    0.00 
 272    1:10   0.00   52.2    82    2.2   181     3.9   748.3    0.00 
 272    1:20   0.00   52.2    81    2.8   186     5.1   748.2    0.00 
 272    1:30   0.00   51.5    82    2.1   178     3.8   748.1    0.00 
 272    1:40   0.07   51.3    83    3.2   179     5.2   748.1    0.00 
 272    1:50   0.09   51.2    82    2.9   171     4.9   748.0    0.00 
 272    2:00   0.01   50.6    84    2.1   179     4.2   748.0    0.00 
 272    2:10   0.00   50.6    84    2.3   176     4.1   747.9    0.00 
 272    2:20   0.02   51.0    83    2.9   166     5.3   747.9    0.00 
 272    2:30   0.01   50.9    83    2.3   168     3.5   747.8    0.00 
 272    2:40   0.01   51.2    82    2.9   172     4.5   747.8    0.00 
 272    2:50   0.01   51.4    80    2.9   181     5.2   747.7    0.00 
 272    3:00   0.04   51.5    80    2.8   172     4.5   747.7    0.00 
 272    3:10   0.06   51.3    81    2.7   180     4.9   747.7    0.00 
 272    3:20   0.06   51.1    81    2.5   180     4.3   747.7    0.00 
 272    3:30   0.03   51.1    81    2.0   171     3.4   747.6    0.00 
 272    3:40   0.01   50.8    81    2.1   183     3.9   747.6    0.00 
 272    3:50   0.01   49.9    83    1.2   215     2.5   747.5    0.00 
 272    4:00   0.80   48.3    84    0.3   129     1.3   747.5    0.00 
 272    4:10   0.37   46.7    86    0.6   326     1.5   747.5    0.00 
 272    4:20   0.63   46.1    90    0.4   354     0.9   747.5    0.00 
 272    4:30   1.78   46.1    89    0.8   350     1.4   747.6    0.00 
 272    4:40   1.29   46.0    90    0.3   359     1.0   747.7    0.00 
 272    4:50   1.63   46.0    90    0.0     0     0.4   747.7    0.00 
 272    5:00   1.55   45.7    90    0.3   344     0.7   747.7    0.00 
 272    5:10   2.32   45.7    91    0.3   180     1.1   747.7    0.00 
 272    5:20   2.37   45.7    91    0.2     2     0.8   747.7    0.00 
 272    5:30   1.60   45.4    92    0.3   338     1.9   747.8    0.00 
 272    5:40   1.44   46.3    91    0.4   187     1.8   747.7    0.00 
 272    5:50   2.79   46.0    90    0.7   340     1.9   747.6    0.00 
 272    6:00   2.37   45.4    91    0.3   280     1.2   747.7    0.00 
 272    6:10   3.17   44.7    91    0.3   305     0.9   747.8    0.00 
 272    6:20   3.25   44.6    92    0.5    83     1.8   747.8    0.00 
 272    6:30   3.14   45.0    93    0.4   315     1.1   747.8    0.00 
 272    6:40   3.17   44.9    93    0.6    31     1.1   747.8    0.00 
 272    6:50   3.16   47.2    94    1.2   187     4.1   747.8    0.00 
 272    7:00   2.41   50.3    86    2.0   159     3.3   747.7    0.00 
 272    7:10   2.82   51.4    83    2.3   180     4.0   747.7    0.00 
 272    7:20   2.96   51.7    81    2.4   176     4.1   747.6    0.00 
 272    7:30   2.97   51.9    80    2.4   182     5.3   747.6    0.00 
 272    7:40   2.78   52.3    78    2.7   194     4.8   747.6    0.00 
 272    7:50   0.82   52.1    78    3.2   192     5.8   747.5    0.00 
 272    8:00   1.30   51.9    78    2.5   188     4.3   747.5    0.00 
 272    8:10   1.68   51.4    79    2.3   194     3.9   747.5    0.00 
 272    8:20   2.96   53.8    75    2.6   192     5.4   747.5    0.00 
 272    8:30   2.57   53.2    74    4.0   214     7.8   747.4    0.00 
 272    8:40   2.25   51.9    76    4.0   208     6.9   747.4    0.00 
 272    8:50   2.42   53.1    74    4.0   200     5.8   747.4    0.00 
 272    9:00   2.32   52.8    73    4.1   197     7.5   747.4    0.00 
 272    9:10   2.17   54.8    68    4.3   196     8.2   747.3    0.00 
 272    9:20   1.69   53.7    69    3.8   188     6.2   747.3    0.00 
 272    9:30   2.07   55.9    69    3.8   188     6.7   747.2    0.00 
 272    9:40   1.94   56.8    64    4.5   204     8.7   747.1    0.00 
 272    9:50   1.87   57.7    61    4.2   175     7.9   747.1    0.00 
 272   10:00   1.57   54.8    66    4.1   186     7.9   747.1    0.00 
 272   10:10   1.62   54.7    68    4.3   196     6.8   747.1    0.00 
 272   10:20   1.55   54.2    65    4.7   197     7.5   747.0    0.00 
 272   10:30   1.62   54.7    66    4.6   188     8.8   746.9    0.00 
 272   10:40   1.90   55.4    62    5.5   184     8.8   746.8    0.00 
 272   10:50   1.88   57.1    60    5.7   181    10.4   746.6    0.00 
 272   11:00   1.66   55.6    60    5.6   178    10.7   746.6    0.00 
 272   11:10   1.51   55.0    60    5.0   178     9.3   746.6    0.00 
 272   11:20   1.50   54.4    63    3.6   181     6.8   746.6    0.00 
 272   11:30   2.15   56.6    63    5.5   170     9.7   746.4    0.00 
 272   11:40   2.14   58.3    60    5.7   179    11.5   746.2    0.00 
 272   11:50   2.10   58.2    58    7.0   170    11.6   745.9    0.00 
 272   12:00   1.96   58.1    56    6.5   170    11.2   745.8    0.00 
 272   12:10   1.80   58.5    57    5.3   165     9.4   745.5    0.00 
 272   12:20   1.45   58.3    56    5.4   175    11.0   745.3    0.00 
 272   12:30   0.83   58.0    56    5.1   174     8.4   745.0    0.00 
 272   12:40   1.11   56.5    58    6.0   187    10.7   745.0    0.00 
 272   12:50   1.28   55.6    60    5.0   199     9.0   745.0    0.00 
 272   13:00   1.22   51.5    72    4.6   217     8.2   745.1    0.04 
 272   13:10   1.39   48.8    79    4.7   217     9.5   745.3    0.01 
 272   13:20   2.37   50.8    80    4.2   202     9.2   745.0    0.00 
 272   13:30   2.71   51.9    76    3.8   215     6.8   745.0    0.00 
 272   13:40   2.70   51.7    79    2.7   230     5.6   745.0    0.00 
 272   13:50   2.93   50.5    81    2.3   244     6.1   745.2    0.01 
 272   14:00   2.79   49.4    78    3.4   215     7.9   745.1    0.00 
 272   14:10   2.97   48.7    80    2.6   214     5.5   745.2    0.00 
 272   14:20   2.80   48.7    80    3.2   182     5.4   745.3    0.00 
 272   14:30   2.63   47.7    83    2.7   205     8.1   745.5    0.00 
 272   14:40   2.64   46.5    77    3.9   235    10.0   746.0    0.00 
 272   14:50   2.50   44.9    82    2.8   176     5.9   745.5    0.01 
 272   15:00   2.64   45.5    83    2.4   160     3.7   745.3    0.00 
 272   15:10   2.08   46.3    82    3.1   152     5.1   745.0    0.00 
 272   15:20   2.46   48.6    78    2.7   159     4.7   745.0    0.00 
 272   15:30   2.31   51.2    72    1.0   190     3.1   744.9    0.00 
 272   15:40   2.16   53.2    68    1.8   195     3.9   745.0    0.00 
 272   15:50   2.06   54.5    63    1.8   229     4.8   744.9    0.00 
 272   16:00   2.17   55.1    56    2.9   214     7.0   744.8    0.00 
 272   16:10   2.25   55.1    55    2.8   216     7.5   744.8    0.00 
 272   16:20   2.14   55.5    52    2.4   223     5.7   744.9    0.00 
 272   16:30   2.14   55.5    46    2.9   234     7.6   744.9    0.00 
 272   16:40   2.14   55.7    41    1.8   242     4.1   745.0    0.00 
 272   16:50   2.19   54.7    42    2.9   250     8.5   745.1    0.00 
 272   17:00   2.15   54.1    43    2.5   246     5.7   745.1    0.00 
 272   17:10   1.93   52.0    46    2.4   250     5.4   745.1    0.00 
 272   17:20   1.93   51.1    48    2.9   252     5.9   745.3    0.00 
 272   17:30   1.92   50.5    49    2.9   240     7.0   745.3    0.00 
 272   17:40   1.94   50.0    50    2.5   250     5.8   745.3    0.00 
 272   17:50   2.07   49.2    53    1.3   252     4.2   745.4    0.00 
 272   18:00   2.19   49.0    51    2.0   254     4.5   745.4    0.00 
 272   18:10   2.34   48.5    51    2.1   234     4.8   745.4    0.00 
 272   18:20   2.35   47.8    53    1.7   228     4.0   745.5    0.00 
 272   18:30   2.46   48.1    52    1.8   220     3.9   745.5    0.00 
 272   18:40   2.80   47.1    54    2.0   231     5.4   745.5    0.00 
 272   18:50   2.90   45.3    59    1.9   214     6.1   745.5    0.00 
 272   19:00   3.25   46.1    56    1.9   226     4.8   745.5    0.00 
 272   19:10   3.08   45.3    58    2.9   216     7.3   745.5    0.00 
 272   19:20   3.01   43.9    62    2.4   216     4.3   745.5    0.00 
 272   19:30   3.08   44.6    60    2.7   229     8.1   745.7    0.00 
 272   19:40   2.76   43.8    60    2.8   223     6.0   745.7    0.00 
 272   19:50   2.30   43.3    62    2.0   235     3.7   745.8    0.00 
 272   20:00   1.88   44.3    56    2.7   233     5.6   745.8    0.00 
 272   20:10   0.74   43.7    58    2.9   221     5.6   745.7    0.00 
 272   20:20   0.55   43.0    58    3.0   220     5.5   745.9    0.00 
 272   20:30   0.92   42.0    60    2.6   228     4.9   746.1    0.00 
 272   20:40   1.84   41.8    60    2.3   217     3.9   746.1    0.00 
 272   20:50   2.73   40.3    65    2.6   226     4.4   746.2    0.00 
 272   21:00   2.78   40.2    64    2.2   229     3.2   746.2    0.00 
 272   21:10   1.55   39.8    65    2.4   226     3.6   746.3    0.00 
 272   21:20   2.91   38.1    70    2.4   230     3.5   746.4    0.00 
 272   21:30   2.26   37.8    71    1.9   227     2.9   746.4    0.00 
 272   21:40   2.93   36.9    72    1.0   221     2.2   746.5    0.00 
 272   21:50   3.13   36.3    75    1.6   196     2.8   746.5    0.00 
 272   22:00   2.43   34.1    81    1.4   191     2.7   746.4    0.00 
 272   22:10   2.50   33.2    79    1.1     9     2.3   746.5    0.00 
 272   22:20   2.02   31.8    81    1.2    87     3.1   746.6    0.00 

Return to Hidden Valley, Valles Caldera graphs page.


Western Regional Climate Center,wrcc@dri.edu